METAR Data

Data at: 2300 UTC 26 Feb 2020

METAR for:KWST (Westerly State Arpt, RI, US)
Text:KWST 262253Z AUTO 09006KT 10SM OVC022 09/05 A2991 RMK AO2 SLP130 T00890050
Temperature: 8.9°C ( 48°F)
Dewpoint: 5.0°C ( 41°F) [RH = 76%]
Pressure (altimeter):29.91 inches Hg (1013.0 mb) [Sea level pressure: 1013.0 mb]
Winds:from the E (90 degrees) at 7 MPH (6 knots; 3.1 m/s)
Visibility:10 or more sm (16+ km)
Ceiling:2200 feet AGL
Clouds: overcast cloud deck at 2200 feet AGL
QC Flag:automated observation with no human augmentation